Terminal Aerodrome Forecast
Issued by NWS Sterling, VA

Current Version | Previous Version | Text Only | Print | Product List | Glossary Off
Versions: 1 2 3 4 5 6 7 8 9 10 11 12 13 14 15 16 17 18 19 20 21

000
FTUS41 KLWX 232100 AAA
TAFIAD
TAF AMD
KIAD 232113Z 2321/2424 32018G26KT P6SM SCT050
     FM240000 32014KT P6SM SKC
     FM240500 32009KT P6SM SKC
     FM241300 33010G18KT P6SM FEW060
     FM242200 33005KT P6SM SCT250=

USA.gov is the U.S. government's official web portal to all federal, state and local government web resources and services.